Time;durP1;ratioP1;P1;durP2;ratioP2;P2;SDS_P1;SDS_P2;PMS_P1;PMS_P2;Temp;Humidity;BMP_temperature;BMP_pressure;BME280_temperature;BME280_humidity;BME280_pressure;Samples;Min_cycle;Max_cycle;Signal;HPM_P1;HPM_P2
2022/04/06 00:00:36;;;;;;;35.95;10.23;;;;;;;8.93;96.02;100461.09;4985736;28;20125;-85
2022/04/06 00:03:01;;;;;;;43.00;10.68;;;;;;;8.94;96.11;100451.59;4975165;28;20046;-85
2022/04/06 00:05:26;;;;;;;36.70;9.88;;;;;;;8.92;96.11;100455.94;4974872;28;20034;-85
2022/04/06 00:07:52;;;;;;;39.25;11.20;;;;;;;8.90;96.04;100453.38;4984491;28;20109;-85
2022/04/06 00:10:17;;;;;;;45.37;11.43;;;;;;;8.91;95.76;100451.66;4982962;28;20030;-85
2022/04/06 00:12:42;;;;;;;36.83;10.68;;;;;;;8.94;95.22;100439.50;4981083;28;20324;-85
2022/04/06 00:15:10;;;;;;;43.78;11.48;;;;;;;8.90;95.56;100452.53;4980502;28;20110;-85
2022/04/06 00:17:36;;;;;;;45.97;10.73;;;;;;;8.89;95.53;100456.00;4977744;28;20444;-85
2022/04/06 00:20:03;;;;;;;41.70;11.32;;;;;;;8.87;95.31;100456.03;4978901;28;20089;-85
2022/04/06 00:22:28;;;;;;;44.47;11.63;;;;;;;8.87;95.47;100453.44;4975273;28;20204;-85
2022/04/06 00:24:54;;;;;;;42.85;11.27;;;;;;;8.86;95.69;100449.19;4985919;28;20040;-85
2022/04/06 00:27:19;;;;;;;40.63;10.48;;;;;;;8.86;95.34;100450.91;4972298;28;20156;-85
2022/04/06 00:29:45;;;;;;;37.75;11.77;;;;;;;8.88;95.07;100447.41;4978755;28;20026;-85
2022/04/06 00:32:11;;;;;;;39.63;11.55;;;;;;;8.85;95.25;100447.47;4985845;28;20035;-85
2022/04/06 00:37:20;;;;;;;47.30;10.20;;;;;;;8.84;95.31;100442.34;4979411;28;20038;-85
2022/04/06 00:39:45;;;;;;;37.60;10.32;;;;;;;8.85;95.26;100444.06;4977094;28;20031;-85
2022/04/06 00:42:11;;;;;;;34.97;10.00;;;;;;;8.83;95.38;100435.47;4973664;28;20058;-85
2022/04/06 00:44:37;;;;;;;41.60;10.27;;;;;;;8.82;95.25;100438.94;4978514;28;20102;-85
2022/04/06 00:47:03;;;;;;;44.22;10.75;;;;;;;8.80;95.12;100436.41;4982308;28;20760;-85
2022/04/06 00:49:29;;;;;;;39.70;10.02;;;;;;;8.79;95.11;100437.28;4973022;28;20042;-85
2022/04/06 00:51:55;;;;;;;40.08;9.77;;;;;;;8.79;95.79;100428.69;4970137;28;20034;-85
2022/04/06 00:54:22;;;;;;;40.67;10.50;;;;;;;8.78;95.65;100429.56;4973462;28;20037;-85
2022/04/06 00:56:49;;;;;;;42.83;9.90;;;;;;;8.76;95.40;100429.59;4976137;28;20036;-85
2022/04/06 00:59:18;;;;;;;34.75;9.70;;;;;;;8.79;95.30;100423.50;4977498;28;20030;-85
2022/04/06 01:01:45;;;;;;;39.05;10.48;;;;;;;8.78;94.88;100419.22;4977124;28;20093;-85
2022/04/06 01:04:11;;;;;;;42.85;10.13;;;;;;;8.77;94.90;100427.88;4986592;28;20522;-85
2022/04/06 01:06:36;;;;;;;41.40;10.20;;;;;;;8.76;94.94;100414.09;4987854;28;20034;-85
2022/04/06 01:09:03;;;;;;;39.03;10.10;;;;;;;8.75;95.37;100419.28;4977501;28;20400;-87
2022/04/06 01:11:28;;;;;;;41.50;9.93;;;;;;;8.78;94.56;100419.22;4984005;28;20026;-87
2022/04/06 01:13:54;;;;;;;35.92;9.95;;;;;;;8.76;95.17;100416.69;4976086;28;20029;-87
2022/04/06 01:16:20;;;;;;;38.53;9.20;;;;;;;8.73;94.68;100413.31;4972834;28;20356;-87
2022/04/06 01:18:46;;;;;;;42.25;9.35;;;;;;;8.73;95.65;100416.75;4982593;28;20026;-87
2022/04/06 01:21:12;;;;;;;38.80;8.75;;;;;;;8.71;95.19;100414.22;4983387;28;20033;-88
2022/04/06 01:23:43;;;;;;;36.22;9.45;;;;;;;8.73;95.25;100414.19;4972639;28;20080;-88
2022/04/06 01:26:12;;;;;;;38.38;9.40;;;;;;;8.70;94.78;100414.25;4971186;28;20085;-87
2022/04/06 01:28:38;;;;;;;45.28;9.63;;;;;;;8.70;94.76;100415.09;4973999;28;20085;-87
2022/04/06 01:31:04;;;;;;;41.22;9.32;;;;;;;8.70;94.54;100406.47;4982456;28;20388;-88
2022/04/06 01:33:31;;;;;;;39.35;9.57;;;;;;;8.68;94.61;100396.19;4973705;28;20562;-87
2022/04/06 01:35:57;;;;;;;45.47;9.68;;;;;;;8.69;94.28;100400.47;4969188;28;20436;-88
2022/04/06 01:38:23;;;;;;;33.00;8.57;;;;;;;8.67;94.19;100391.88;4978077;28;20498;-87
2022/04/06 01:40:48;;;;;;;38.05;8.32;;;;;;;8.68;94.70;100393.59;4972624;28;20050;-88
2022/04/06 01:43:13;;;;;;;36.17;8.77;;;;;;;8.65;94.43;100396.25;4975971;28;20446;-87
2022/04/06 01:45:42;;;;;;;37.72;8.95;;;;;;;8.65;94.10;100405.75;4977048;28;20407;-87
2022/04/06 01:48:07;;;;;;;33.80;7.70;;;;;;;8.66;93.97;100397.13;4975663;28;20030;-87
2022/04/06 01:53:24;;;;;;;29.20;7.75;;;;;;;8.64;94.01;100393.72;4967523;28;20043;-87
2022/04/06 01:55:49;;;;;;;31.20;7.17;;;;;;;8.66;93.60;100397.97;5001954;28;20152;-87
2022/04/06 01:58:14;;;;;;;35.13;8.00;;;;;;;8.64;93.37;100393.72;4978425;28;20337;-87
2022/04/06 02:00:40;;;;;;;33.17;7.85;;;;;;;8.66;93.15;100397.13;4975882;28;20054;-87
2022/04/06 02:03:05;;;;;;;41.88;8.65;;;;;;;8.63;93.65;100392.84;4976304;28;20026;-87
2022/04/06 02:05:33;;;;;;;38.67;7.82;;;;;;;8.63;93.52;100392.84;4980464;28;20058;-87
2022/04/06 02:07:59;;;;;;;31.05;7.47;;;;;;;8.65;93.06;100387.66;4988406;28;20030;-87
2022/04/06 02:10:25;;;;;;;35.08;7.57;;;;;;;8.59;93.13;100391.25;4987737;28;20401;-85
2022/04/06 02:12:52;;;;;;;33.22;6.53;;;;;;;8.60;93.29;100387.75;4982312;28;20539;-85
2022/04/06 02:15:18;;;;;;;38.25;6.88;;;;;;;8.56;92.85;100388.72;4983614;28;20053;-84
2022/04/06 02:17:44;;;;;;;37.97;6.65;;;;;;;8.56;93.07;100382.69;4987448;28;20058;-84
2022/04/06 02:20:10;;;;;;;34.50;7.80;;;;;;;8.56;93.27;100382.69;4980926;28;20041;-84
2022/04/06 02:22:35;;;;;;;33.25;7.25;;;;;;;8.55;93.21;100384.44;4990281;28;20042;-85
2022/04/06 02:25:01;;;;;;;33.97;7.13;;;;;;;8.54;92.57;100379.28;4983694;28;20069;-85
2022/04/06 02:27:27;;;;;;;32.08;6.82;;;;;;;8.54;92.88;100374.13;4977802;28;20070;-85
2022/04/06 02:29:52;;;;;;;29.35;6.78;;;;;;;8.49;92.62;100374.25;4975597;28;20027;-85
2022/04/06 02:32:17;;;;;;;29.33;7.73;;;;;;;8.51;92.66;100376.78;4978830;28;20050;-85
2022/04/06 02:34:43;;;;;;;25.05;6.03;;;;;;;8.49;92.43;100371.66;4985007;28;20298;-85
2022/04/06 02:37:10;;;;;;;31.80;6.40;;;;;;;8.49;92.75;100369.06;4978845;28;20026;-85
2022/04/06 02:39:35;;;;;;;30.08;6.65;;;;;;;8.46;92.00;100363.97;4984587;28;20026;-85
2022/04/06 02:42:01;;;;;;;28.08;6.03;;;;;;;8.47;91.44;100367.41;4979723;28;20038;-84
2022/04/06 02:44:26;;;;;;;26.35;5.93;;;;;;;8.47;91.71;100368.25;4983779;28;20034;-85
2022/04/06 02:46:52;;;;;;;26.65;5.95;;;;;;;8.46;91.85;100366.53;4981089;28;20083;-84
2022/04/06 02:49:18;;;;;;;27.08;6.30;;;;;;;8.45;91.84;100359.72;4975648;28;20174;-85
2022/04/06 02:51:44;;;;;;;39.22;6.22;;;;;;;8.45;91.08;100364.88;4980430;28;20054;-84
2022/04/06 02:54:09;;;;;;;31.98;6.10;;;;;;;8.43;91.28;100364.06;4976994;28;20026;-85
2022/04/06 02:56:35;;;;;;;26.25;5.38;;;;;;;8.43;91.78;100369.22;4970875;28;20027;-84
2022/04/06 02:59:01;;;;;;;26.88;6.20;;;;;;;8.40;91.66;100363.25;4978052;28;20041;-84
2022/04/06 03:01:26;;;;;;;29.17;6.30;;;;;;;8.37;91.35;100361.59;4969034;28;20030;-84
2022/04/06 03:03:52;;;;;;;29.58;5.68;;;;;;;8.35;91.36;100353.03;4973952;28;20066;-84
2022/04/06 03:06:17;;;;;;;32.42;6.65;;;;;;;8.32;91.44;100350.53;4984450;28;20185;-84
2022/04/06 03:08:43;;;;;;;28.85;6.35;;;;;;;8.28;91.15;100354.88;4984645;28;20059;-84
2022/04/06 03:11:08;;;;;;;27.60;5.50;;;;;;;8.38;90.30;100350.41;4972688;28;20039;-84
2022/04/06 03:13:34;;;;;;;26.73;6.13;;;;;;;8.27;90.36;100344.56;4981639;28;20023;-84
2022/04/06 03:15:59;;;;;;;27.75;5.95;;;;;;;8.25;90.91;100344.63;4987442;28;20038;-84
2022/04/06 03:18:25;;;;;;;26.23;5.60;;;;;;;8.25;90.31;100344.63;5011535;28;20021;-84
2022/04/06 03:20:50;;;;;;;31.10;6.25;;;;;;;8.25;90.86;100338.63;4975882;28;20130;-84
2022/04/06 03:23:15;;;;;;;21.42;5.60;;;;;;;8.20;91.42;100336.13;4973638;28;20031;-84
2022/04/06 03:25:41;;;;;;;37.03;6.68;;;;;;;8.16;90.70;100337.09;4978177;28;20022;-84
2022/04/06 03:28:07;;;;;;;24.92;6.15;;;;;;;8.15;90.71;100326.78;4979113;28;20546;-84
2022/04/06 03:30:33;;;;;;;30.00;5.95;;;;;;;8.11;90.72;100323.44;4980297;28;20035;-84
2022/04/06 03:32:58;;;;;;;28.55;6.10;;;;;;;8.06;90.82;100320.09;4974555;28;20030;-84
2022/04/06 03:35:23;;;;;;;32.58;6.20;;;;;;;8.07;91.35;100311.47;4972600;28;20392;-84
2022/04/06 03:37:52;;;;;;;23.08;4.70;;;;;;;8.07;90.34;100308.88;4976768;28;20520;-84
2022/04/06 03:40:17;;;;;;;30.50;5.55;;;;;;;8.06;90.72;100303.75;4977582;28;20532;-84
2022/04/06 03:42:43;;;;;;;22.92;6.18;;;;;;;8.05;90.36;100302.88;4979653;28;20061;-84
2022/04/06 03:45:09;;;;;;;29.55;5.53;;;;;;;8.08;90.24;100299.41;4979035;28;20085;-84
2022/04/06 03:47:36;;;;;;;34.10;5.93;;;;;;;8.05;89.76;100295.16;4979768;28;20503;-84
2022/04/06 03:50:03;;;;;;;24.27;5.68;;;;;;;8.07;89.93;100289.97;4975723;28;20049;-84
2022/04/06 03:52:28;;;;;;;28.63;5.25;;;;;;;8.07;89.93;100305.44;4978088;28;20401;-84
2022/04/06 03:54:54;;;;;;;30.27;6.28;;;;;;;8.07;89.39;100298.56;4985254;28;20558;-84
2022/04/06 03:57:19;;;;;;;21.45;4.97;;;;;;;8.08;89.16;100295.09;4972193;28;20400;-84
2022/04/06 03:59:45;;;;;;;22.13;5.15;;;;;;;8.09;89.10;100290.78;4979252;28;20038;-84
2022/04/06 04:02:10;;;;;;;28.15;5.55;;;;;;;8.09;88.86;100301.09;4978255;28;20035;-84
2022/04/06 04:04:36;;;;;;;21.75;5.07;;;;;;;8.11;88.62;100301.94;4977270;28;20026;-84
2022/04/06 04:07:01;;;;;;;20.00;5.07;;;;;;;8.10;88.52;100303.66;4981008;28;20147;-84
2022/04/06 04:09:30;;;;;;;27.13;5.45;;;;;;;8.10;88.52;100307.97;4976272;28;20050;-84
2022/04/06 04:11:59;;;;;;;24.63;5.20;;;;;;;8.08;89.00;100297.69;4981383;28;20030;-84
2022/04/06 04:14:24;;;;;;;24.08;5.32;;;;;;;8.08;88.53;100292.50;4975853;28;20048;-84
2022/04/06 04:16:50;;;;;;;23.85;5.55;;;;;;;8.10;88.00;100298.50;4989482;28;20030;-84
2022/04/06 04:19:19;;;;;;;20.83;5.07;;;;;;;8.09;89.18;100296.78;4977010;28;20038;-84
2022/04/06 04:21:44;;;;;;;23.70;4.95;;;;;;;8.11;88.16;100304.50;4976764;28;20315;-84
2022/04/06 04:24:09;;;;;;;22.63;4.72;;;;;;;8.08;88.18;100291.66;4978647;28;20535;-84
2022/04/06 04:26:36;;;;;;;28.80;5.15;;;;;;;8.07;88.20;100289.97;4977405;28;20519;-84
2022/04/06 04:29:05;;;;;;;27.33;5.10;;;;;;;8.08;89.25;100295.09;4982373;28;20039;-84
2022/04/06 04:31:31;;;;;;;26.48;5.05;;;;;;;8.13;87.14;100298.41;4973821;28;20451;-84
2022/04/06 04:33:57;;;;;;;18.98;5.10;;;;;;;8.07;87.87;100290.81;4982542;28;20480;-84
2022/04/06 04:36:23;;;;;;;24.13;5.20;;;;;;;8.11;87.01;100283.88;4973347;28;20121;-84
2022/04/06 04:38:48;;;;;;;23.48;5.28;;;;;;;8.09;86.93;100291.63;4972485;28;20027;-84
2022/04/06 04:41:13;;;;;;;22.02;5.07;;;;;;;8.10;87.67;100282.16;4975630;28;20488;-84
2022/04/06 04:43:41;;;;;;;30.38;4.70;;;;;;;8.13;87.27;100284.66;4981890;28;20114;-84
2022/04/06 04:46:07;;;;;;;27.45;5.30;;;;;;;8.10;87.08;100280.44;4982947;28;20108;-84
2022/04/06 04:48:33;;;;;;;22.85;6.60;;;;;;;8.11;87.39;100279.56;4978971;28;20142;-84
2022/04/06 04:50:58;;;;;;;16.80;5.10;;;;;;;8.11;87.52;100282.13;4983479;28;20373;-84
2022/04/06 04:53:25;;;;;;;24.00;5.63;;;;;;;8.15;87.80;100277.72;4974326;28;20026;-84
2022/04/06 04:55:50;;;;;;;24.25;5.32;;;;;;;8.13;87.53;100282.06;4981801;28;20046;-85
2022/04/06 04:58:16;;;;;;;26.05;5.85;;;;;;;8.14;87.65;100265.72;4980021;28;20038;-83
2022/04/06 05:00:42;;;;;;;30.17;6.18;;;;;;;8.15;87.62;100273.41;4972164;28;20033;-83
2022/04/06 05:03:08;;;;;;;29.70;6.93;;;;;;;8.16;88.66;100277.72;4978143;28;20026;-83
2022/04/06 05:05:34;;;;;;;28.48;6.90;;;;;;;8.17;88.05;100270.81;4975549;28;20078;-83
2022/04/06 05:07:59;;;;;;;39.22;6.72;;;;;;;8.17;88.27;100263.91;4977708;28;20031;-83
2022/04/06 05:10:25;;;;;;;33.60;6.90;;;;;;;8.18;88.90;100260.47;4974624;28;20761;-83
2022/04/06 05:12:52;;;;;;;31.58;7.05;;;;;;;8.19;88.81;100263.84;4983706;28;20122;-83
2022/04/06 05:15:19;;;;;;;36.08;7.38;;;;;;;8.20;89.29;100271.56;5013644;28;20034;-83
2022/04/06 05:17:44;;;;;;;31.02;6.93;;;;;;;8.22;88.99;100267.22;4971355;28;20026;-84
2022/04/06 05:20:10;;;;;;;37.05;7.55;;;;;;;8.26;88.56;100253.34;4996487;28;20022;-83
2022/04/06 05:22:36;;;;;;;36.40;8.27;;;;;;;8.26;88.85;100250.78;4986490;28;20038;-83
2022/04/06 05:25:07;;;;;;;35.08;7.72;;;;;;;8.26;88.99;100257.66;4982091;28;20049;-83
2022/04/06 05:27:49;;;;;;;35.92;7.15;;;;;;;8.27;89.02;100255.06;4977711;28;20404;-83
2022/04/06 05:30:16;;;;;;;33.35;7.22;;;;;;;8.31;88.96;100250.72;4972371;28;20018;-84
2022/04/06 05:32:42;;;;;;;35.90;8.80;;;;;;;8.30;88.79;100254.16;4992071;28;20402;-83
2022/04/06 05:35:09;;;;;;;34.55;8.18;;;;;;;8.34;88.19;100240.31;4971817;28;20114;-83
2022/04/06 05:37:39;;;;;;;37.28;9.20;;;;;;;8.35;89.37;100251.47;4980478;28;20035;-84
2022/04/06 05:40:06;;;;;;;37.03;7.22;;;;;;;8.39;88.17;100243.63;4982156;28;20145;-84
2022/04/06 05:42:32;;;;;;;39.42;7.95;;;;;;;8.38;88.92;100244.53;4972332;28;20035;-83
2022/04/06 05:44:57;;;;;;;40.83;8.57;;;;;;;8.40;88.59;100237.56;4974541;28;20456;-84
2022/04/06 05:47:23;;;;;;;35.20;7.75;;;;;;;8.41;88.31;100244.44;4983595;28;20022;-84
2022/04/06 05:49:48;;;;;;;31.38;5.95;;;;;;;8.51;86.65;100237.31;4980606;28;20061;-83
2022/04/06 05:52:14;;;;;;;32.65;7.43;;;;;;;8.45;87.85;100242.63;4982509;28;20022;-83
2022/04/06 05:54:39;;;;;;;34.90;7.40;;;;;;;8.48;87.66;100238.22;4986774;28;20396;-83
2022/04/06 05:57:04;;;;;;;29.08;7.03;;;;;;;8.49;87.73;100234.75;4983322;28;20419;-83
2022/04/06 05:59:30;;;;;;;38.97;7.53;;;;;;;8.50;87.74;100241.63;4975623;28;20094;-84
2022/04/06 06:01:55;;;;;;;33.80;6.93;;;;;;;8.52;87.32;100236.44;4973181;28;20028;-84
2022/04/06 06:04:20;;;;;;;27.42;6.55;;;;;;;8.55;87.13;100237.19;4984017;28;20030;-84
2022/04/06 06:06:45;;;;;;;32.33;6.72;;;;;;;8.55;86.76;100246.66;4973011;28;20087;-83
2022/04/06 06:09:11;;;;;;;33.77;6.53;;;;;;;8.59;87.07;100245.72;4975111;28;20400;-84
2022/04/06 06:11:36;;;;;;;21.88;4.90;;;;;;;8.73;85.16;100248.81;4970205;28;20314;-83
2022/04/06 06:14:02;;;;;;;26.73;5.97;;;;;;;8.64;85.93;100239.56;4978908;28;20455;-84
2022/04/06 06:16:28;;;;;;;26.15;5.97;;;;;;;8.72;86.21;100247.09;4971009;28;20050;-84
2022/04/06 06:18:55;;;;;;;29.95;5.82;;;;;;;8.76;86.25;100242.69;4974058;28;20057;-84
2022/04/06 06:21:21;;;;;;;23.77;5.50;;;;;;;8.80;84.05;100244.34;4975216;28;20402;-84
2022/04/06 06:23:46;;;;;;;20.08;5.25;;;;;;;8.83;83.88;100241.66;4973821;28;20038;-84
2022/04/06 06:26:12;;;;;;;32.00;5.93;;;;;;;8.84;83.77;100244.19;4985289;28;20093;-84
2022/04/06 06:28:37;;;;;;;25.60;4.72;;;;;;;8.89;82.84;100249.25;4977042;28;20030;-84
2022/04/06 06:31:02;;;;;;;20.25;4.72;;;;;;;8.91;82.80;100245.75;4983093;28;20027;-84
2022/04/06 06:33:28;;;;;;;22.50;4.43;;;;;;;8.92;82.37;100244.84;4978582;28;20031;-84
2022/04/06 06:35:53;;;;;;;21.00;4.37;;;;;;;8.96;81.69;100241.28;4975274;28;20282;-84
2022/04/06 06:38:18;;;;;;;16.73;3.80;;;;;;;9.02;80.24;100238.53;4972226;28;20317;-84
2022/04/06 06:40:44;;;;;;;17.75;4.40;;;;;;;9.00;80.61;100232.56;4972240;28;20093;-83
2022/04/06 06:43:12;;;;;;;21.85;4.93;;;;;;;9.01;80.08;100241.16;4978659;28;20031;-84
2022/04/06 06:45:37;;;;;;;18.98;4.68;;;;;;;9.05;78.32;100229.84;4968121;28;20027;-83
2022/04/06 06:48:03;;;;;;;12.33;4.63;;;;;;;9.02;77.33;100228.19;4977807;28;20025;-85
2022/04/06 06:50:28;;;;;;;15.65;4.30;;;;;;;9.04;77.92;100238.50;4980764;28;20297;-83
2022/04/06 06:52:54;;;;;;;10.57;4.00;;;;;;;9.05;76.45;100229.84;4978463;28;20057;-84
2022/04/06 06:55:21;;;;;;;13.87;3.70;;;;;;;9.05;76.93;100230.72;4981087;28;20045;-84
2022/04/06 06:57:47;;;;;;;15.20;3.28;;;;;;;9.10;76.70;100225.41;4975648;28;20639;-84
2022/04/06 07:00:12;;;;;;;13.48;3.63;;;;;;;9.15;76.13;100217.50;4978089;28;20510;-84
2022/04/06 07:02:40;;;;;;;16.30;4.25;;;;;;;9.25;75.07;100222.41;4985686;28;20443;-83
2022/04/06 07:05:05;;;;;;;14.13;3.75;;;;;;;9.33;75.79;100224.78;4978498;28;20026;-84
2022/04/06 07:07:30;;;;;;;16.15;3.95;;;;;;;9.41;76.48;100223.66;4978177;28;20026;-83
2022/04/06 07:09:57;;;;;;;16.43;3.20;;;;;;;9.47;75.31;100227.81;4980813;28;20053;-84
2022/04/06 07:12:22;;;;;;;14.82;4.20;;;;;;;9.47;74.62;100222.63;4980320;28;20360;-84
2022/04/06 07:14:48;;;;;;;17.30;3.28;;;;;;;9.47;74.25;100220.91;4977765;28;20114;-84
2022/04/06 07:17:16;;;;;;;15.40;3.05;;;;;;;9.46;73.98;100226.97;4977165;28;20217;-84
2022/04/06 07:19:41;;;;;;;11.77;2.80;;;;;;;9.43;75.05;100210.66;4981383;28;20034;-86
2022/04/06 07:22:06;;;;;;;10.48;2.42;;;;;;;9.44;74.33;100213.22;4982456;28;20119;-86
2022/04/06 07:24:32;;;;;;;13.82;2.90;;;;;;;9.48;75.23;100216.56;4971112;28;20092;-87
2022/04/06 07:26:57;;;;;;;15.87;2.83;;;;;;;9.52;73.26;100202.66;4984859;28;20329;-87
2022/04/06 07:29:22;;;;;;;11.25;3.00;;;;;;;9.55;74.56;100210.31;4973265;28;20310;-86
2022/04/06 07:31:47;;;;;;;9.10;2.55;;;;;;;9.60;73.33;100200.69;4984847;28;20050;-87
2022/04/06 07:34:13;;;;;;;15.93;3.03;;;;;;;9.66;73.93;100204.81;4986123;28;20044;-87
2022/04/06 07:36:42;;;;;;;13.30;2.97;;;;;;;9.67;72.35;100193.56;4981506;28;20274;-86
2022/04/06 07:39:07;;;;;;;11.88;2.95;;;;;;;9.67;73.61;100193.56;4979668;28;20381;-86
2022/04/06 07:41:33;;;;;;;12.45;3.30;;;;;;;9.70;74.30;100201.22;4991531;28;20030;-86
2022/04/06 07:43:59;;;;;;;13.88;3.60;;;;;;;9.71;74.66;100200.34;4990723;28;20061;-86
2022/04/06 07:46:24;;;;;;;17.20;4.38;;;;;;;9.70;75.40;100190.88;4979079;28;20100;-86
2022/04/06 07:48:50;;;;;;;15.75;4.63;;;;;;;9.72;75.66;100178.75;4990332;28;20039;-84
2022/04/06 07:51:16;;;;;;;20.00;4.97;;;;;;;9.79;76.10;100173.34;4984540;28;20037;-85
2022/04/06 07:53:41;;;;;;;17.27;5.15;;;;;;;9.88;76.57;100180.81;4970039;28;20420;-84
2022/04/06 07:56:07;;;;;;;18.85;5.05;;;;;;;10.03;76.32;100176.88;4989237;28;20087;-84
2022/04/06 07:58:34;;;;;;;22.57;5.40;;;;;;;10.11;75.89;100177.47;4970261;28;20031;-84
2022/04/06 08:01:01;;;;;;;19.30;5.20;;;;;;;10.22;77.13;100162.50;4983277;28;20340;-84
2022/04/06 08:03:26;;;;;;;19.60;5.65;;;;;;;10.46;76.98;100162.53;4983161;28;20084;-84
2022/04/06 08:05:51;;;;;;;18.92;5.03;;;;;;;10.59;75.85;100169.84;4976452;28;20031;-84
2022/04/06 08:08:17;;;;;;;17.80;5.47;;;;;;;10.59;75.13;100167.25;4970267;28;20042;-84
2022/04/06 08:10:42;;;;;;;21.45;5.97;;;;;;;10.49;74.78;100178.00;4981789;28;20403;-84
2022/04/06 08:13:07;;;;;;;16.77;5.30;;;;;;;10.43;76.27;100173.88;4980456;28;20322;-84
2022/04/06 08:15:33;;;;;;;14.43;4.82;;;;;;;10.34;75.18;100173.34;4989762;28;20304;-84
2022/04/06 08:17:58;;;;;;;22.77;6.10;;;;;;;10.23;75.71;100178.88;4990667;28;20455;-84
2022/04/06 08:20:24;;;;;;;22.50;5.57;;;;;;;10.16;76.03;100185.13;4978918;28;20118;-84
2022/04/06 08:22:52;;;;;;;20.40;5.43;;;;;;;10.06;76.00;100181.97;4984233;28;20030;-84
2022/04/06 08:25:17;;;;;;;20.92;6.90;;;;;;;9.91;76.31;100187.63;4988359;28;20338;-85
2022/04/06 08:27:43;;;;;;;17.08;5.65;;;;;;;9.86;77.22;100179.16;4989796;28;20113;-84
2022/04/06 08:30:11;;;;;;;17.25;5.72;;;;;;;9.84;76.92;100181.81;4983468;28;20026;-84
2022/04/06 08:32:37;;;;;;;14.93;6.53;;;;;;;9.84;78.01;100176.63;4990129;28;20030;-86
2022/04/06 08:35:03;;;;;;;23.38;5.80;;;;;;;9.88;77.20;100179.97;4971894;28;20030;-84
2022/04/06 08:37:32;;;;;;;16.95;5.72;;;;;;;9.97;77.52;100177.06;4983424;28;20049;-85
2022/04/06 08:39:58;;;;;;;20.90;5.55;;;;;;;10.05;77.02;100180.28;4981700;28;20023;-85
2022/04/06 08:42:25;;;;;;;17.05;6.13;;;;;;;10.11;77.28;100180.06;4982707;28;20037;-84
2022/04/06 08:44:51;;;;;;;23.05;6.03;;;;;;;10.08;77.75;100174.16;4989342;28;20049;-85
2022/04/06 08:47:19;;;;;;;18.75;5.28;;;;;;;10.13;76.96;100161.91;4983562;28;20484;-85
2022/04/06 08:49:45;;;;;;;20.13;5.68;;;;;;;10.19;76.97;100170.34;4970573;28;20082;-85
2022/04/06 08:52:11;;;;;;;15.63;5.00;;;;;;;10.31;77.15;100169.09;4986622;28;20045;-84
2022/04/06 08:54:37;;;;;;;17.35;5.40;;;;;;;10.46;76.84;100162.53;4985110;28;20030;-85
2022/04/06 08:57:05;;;;;;;24.08;5.90;;;;;;;10.60;75.32;100163.78;4984627;28;20396;-85
2022/04/06 08:59:30;;;;;;;23.27;5.00;;;;;;;10.68;74.67;100160.91;4981073;28;20022;-84
2022/04/06 09:01:56;;;;;;;14.70;5.00;;;;;;;10.68;75.31;100172.13;4978107;28;20045;-84
2022/04/06 09:04:23;;;;;;;16.35;5.20;;;;;;;10.63;74.15;100163.69;4976057;28;20066;-85
2022/04/06 09:06:49;;;;;;;18.92;5.57;;;;;;;10.58;75.06;100162.13;4976991;28;20027;-85
2022/04/06 09:09:24;;;;;;;17.55;4.88;;;;;;;10.59;75.42;100169.00;4978473;28;20043;-84
2022/04/06 09:11:49;;;;;;;26.42;5.65;;;;;;;10.53;75.40;100158.84;4984817;28;20489;-84
2022/04/06 09:14:15;;;;;;;18.15;5.28;;;;;;;10.54;75.57;100163.13;4974246;28;20030;-84
2022/04/06 09:16:40;;;;;;;21.35;5.65;;;;;;;10.58;75.62;100175.94;4979283;28;20033;-85
2022/04/06 09:19:13;;;;;;;17.80;5.55;;;;;;;10.66;76.29;100173.91;4991132;28;20213;-84
2022/04/06 09:21:44;;;;;;;10.63;4.90;;;;;;;10.71;76.76;100166.00;4981026;28;20034;-84
2022/04/06 09:24:14;;;;;;;16.40;5.75;;;;;;;10.68;76.98;100179.91;4985880;28;20436;-84
2022/04/06 09:26:39;;;;;;;18.80;5.70;;;;;;;10.64;77.62;100164.53;4993930;28;20053;-84
2022/04/06 09:29:06;;;;;;;22.33;6.15;;;;;;;10.65;77.81;100169.63;4986574;28;20388;-84
2022/04/06 09:31:38;;;;;;;19.77;5.68;;;;;;;10.64;78.36;100167.94;4990730;28;20431;-85
2022/04/06 09:34:04;;;;;;;18.67;5.75;;;;;;;10.58;78.25;100169.91;4992547;28;20509;-84
2022/04/06 09:36:31;;;;;;;25.35;5.88;;;;;;;10.52;78.14;100167.53;4992984;28;20072;-85
2022/04/06 09:38:57;;;;;;;13.43;5.40;;;;;;;10.45;78.79;100164.28;4986823;28;20407;-84
2022/04/06 09:41:23;;;;;;;13.82;4.93;;;;;;;10.45;78.20;100164.28;4993562;28;20076;-85
2022/04/06 09:43:50;;;;;;;18.73;5.45;;;;;;;10.49;77.20;100162.47;4984170;28;20536;-84
2022/04/06 09:49:06;;;;;;;20.00;6.28;;;;;;;10.40;79.38;100168.78;4978051;28;20138;-84
2022/04/06 09:51:32;;;;;;;13.05;4.70;;;;;;;10.45;77.63;100159.09;4981105;28;20546;-85
2022/04/06 09:54:00;;;;;;;14.40;5.55;;;;;;;10.43;77.60;100155.75;4971910;28;20027;-84
2022/04/06 09:56:26;;;;;;;18.77;5.95;;;;;;;10.43;78.56;100157.50;4974630;28;20477;-85
2022/04/06 09:58:51;;;;;;;16.20;5.57;;;;;;;10.46;78.28;100155.63;4968034;28;20600;-84
2022/04/06 10:01:17;;;;;;;14.35;5.70;;;;;;;10.45;78.55;100153.94;4977398;28;20037;-85
2022/04/06 10:03:52;;;;;;;18.55;6.30;;;;;;;10.42;79.33;100158.38;4972816;28;20015;-85
2022/04/06 10:06:18;;;;;;;13.13;5.10;;;;;;;10.44;80.73;100149.63;4973054;28;20041;-86
2022/04/06 10:08:43;;;;;;;15.70;5.47;;;;;;;10.50;80.29;100151.19;4984291;28;20030;-85
2022/04/06 10:11:10;;;;;;;14.75;5.60;;;;;;;10.48;80.73;100160.75;4989839;28;20085;-84
2022/04/06 10:13:38;;;;;;;14.68;5.40;;;;;;;10.46;80.35;100145.25;4983143;28;20400;-84
2022/04/06 10:16:05;;;;;;;14.30;5.90;;;;;;;10.44;80.88;100143.63;4990183;28;20053;-85
2022/04/06 10:18:33;;;;;;;18.23;6.00;;;;;;;10.43;79.80;100147.97;4981014;28;20030;-84
2022/04/06 10:21:04;;;;;;;18.10;6.25;;;;;;;10.41;80.07;100142.00;4979210;28;20053;-85
2022/04/06 10:23:49;;;;;;;15.55;5.88;;;;;;;10.35;80.77;100134.44;4983373;28;20034;-85
2022/04/06 10:26:30;;;;;;;;;;;;;;;10.38;80.54;100138.63;4985665;28;20022;-85
2022/04/06 10:28:55;;;;;;;19.40;6.00;;;;;;;10.36;82.19;100143.91;4987020;28;19928;-84
2022/04/06 10:31:25;;;;;;;23.08;6.05;;;;;;;10.33;82.52;100141.41;4986111;28;20019;-84
2022/04/06 10:34:11;;;;;;;13.85;5.22;;;;;;;10.34;81.19;100137.06;4986336;28;20513;-85
2022/04/06 10:36:40;;;;;;;20.90;6.30;;;;;;;10.24;81.52;100134.78;4965597;28;20493;-84
2022/04/06 10:39:06;;;;;;;15.90;5.43;;;;;;;10.21;81.83;100127.13;4981567;28;20041;-85
2022/04/06 10:41:38;;;;;;;17.93;5.63;;;;;;;10.23;81.64;100133.09;4986370;28;20684;-85
2022/04/06 10:44:03;;;;;;;20.35;5.70;;;;;;;10.22;81.88;100136.59;4971951;28;20027;-85
2022/04/06 10:46:39;;;;;;;18.25;5.43;;;;;;;10.30;81.87;100125.97;4977418;28;20022;-85
2022/04/06 10:49:09;;;;;;;17.95;5.90;;;;;;;10.30;82.54;100125.97;4966247;28;20050;-84
2022/04/06 10:51:40;;;;;;;14.63;5.00;;;;;;;10.29;82.78;100121.69;4975754;28;20026;-85
2022/04/06 10:54:11;;;;;;;16.65;5.88;;;;;;;10.29;82.16;100124.28;4979909;28;20022;-87
2022/04/06 10:56:48;;;;;;;18.13;5.53;;;;;;;10.27;82.17;100126.91;4981187;28;20484;-84
2022/04/06 10:59:18;;;;;;;16.60;5.28;;;;;;;10.24;81.50;100127.00;4989956;28;20026;-84
2022/04/06 11:01:48;;;;;;;17.48;5.80;;;;;;;10.19;81.80;100117.69;4988289;28;20027;-83
2022/04/06 11:04:23;;;;;;;16.45;5.10;;;;;;;10.23;81.04;100124.50;4983609;28;20022;-84
2022/04/06 11:06:56;;;;;;;15.93;5.80;;;;;;;10.21;82.36;100119.34;4983059;28;20031;-87
2022/04/06 11:12:31;;;;;;;15.45;5.90;;;;;;;10.32;81.40;100112.94;4991170;28;20049;-84
2022/04/06 11:14:59;;;;;;;15.77;4.93;;;;;;;10.35;80.25;100115.44;4957139;28;20033;-84
2022/04/06 11:17:43;;;;;;;15.35;5.70;;;;;;;10.33;80.37;100104.28;4960867;28;20508;-84
2022/04/06 11:20:13;;;;;;;13.95;5.45;;;;;;;10.31;80.50;100106.91;4981182;28;20106;-84
2022/04/06 11:22:42;;;;;;;14.88;4.88;;;;;;;10.35;79.83;100102.50;4963935;28;20035;-84
2022/04/06 11:25:12;;;;;;;14.95;5.68;;;;;;;10.40;80.21;100103.19;4980053;28;20027;-83
2022/04/06 11:27:38;;;;;;;13.02;5.43;;;;;;;10.49;80.84;100089.91;4984491;28;20054;-84
2022/04/06 11:30:12;;;;;;;14.38;5.60;;;;;;;10.58;79.87;100094.75;4984433;28;20407;-84